Time;durP1;ratioP1;P1;durP2;ratioP2;P2;SDS_P1;SDS_P2;PMS_P1;PMS_P2;Temp;Humidity;BMP_temperature;BMP_pressure;BME280_temperature;BME280_humidity;BME280_pressure;Samples;Min_cycle;Max_cycle;Signal;HPM_P1;HPM_P2
2024/01/12 00:00:42;;;;;;;23.65;12.20;;;;;;;-4.39;100.00;103424.78;7351341;19;20202;-41
2024/01/12 00:03:12;;;;;;;55.75;19.95;;;;;;;-4.44;100.00;103419.09;7330918;19;20265;-42
2024/01/12 00:05:41;;;;;;;28.02;12.45;;;;;;;-4.51;100.00;103424.81;7351769;19;20194;-42
2024/01/12 00:08:11;;;;;;;44.30;17.15;;;;;;;-4.45;100.00;103423.91;7329626;19;20258;-42
2024/01/12 00:10:40;;;;;;;23.27;10.38;;;;;;;-4.47;100.00;103426.19;7351726;19;20292;-42
2024/01/12 00:13:10;;;;;;;22.25;11.40;;;;;;;-4.51;100.00;103417.25;7330192;19;20194;-42
2024/01/12 00:15:42;;;;;;;23.90;11.10;;;;;;;-4.59;100.00;103417.78;7352059;19;20222;-42
2024/01/12 00:18:13;;;;;;;23.63;11.57;;;;;;;-4.63;100.00;103415.47;7328855;19;20198;-41
2024/01/12 00:20:44;;;;;;;21.80;11.48;;;;;;;-4.57;100.00;103416.38;7351753;19;20226;-45
2024/01/12 00:23:13;;;;;;;22.30;11.35;;;;;;;-4.64;100.00;103411.13;7330586;19;20198;-41
2024/01/12 00:25:44;;;;;;;22.77;11.20;;;;;;;-4.70;100.00;103412.75;7350913;19;20542;-42
2024/01/12 00:28:13;;;;;;;26.05;12.00;;;;;;;-4.77;100.00;103401.78;7327927;19;20210;-42
2024/01/12 00:30:47;;;;;;;21.38;11.80;;;;;;;-4.75;100.00;103404.53;7351815;19;20196;-43
2024/01/12 00:33:17;;;;;;;24.48;12.30;;;;;;;-4.63;100.00;103402.88;7328750;19;20198;-42
2024/01/12 00:35:47;;;;;;;22.00;12.48;;;;;;;-4.71;100.00;103393.31;7349218;19;20283;-45
2024/01/12 00:38:17;;;;;;;22.98;12.63;;;;;;;-4.72;100.00;103394.00;7329190;19;20649;-44
2024/01/12 00:40:47;;;;;;;19.85;10.93;;;;;;;-4.67;100.00;103396.47;7350283;19;20202;-42
2024/01/12 00:43:16;;;;;;;19.83;11.25;;;;;;;-4.79;100.00;103384.63;7328124;19;20205;-42
2024/01/12 00:45:49;;;;;;;24.13;11.52;;;;;;;-4.90;100.00;103383.06;7350803;19;20201;-43
2024/01/12 00:48:18;;;;;;;19.73;11.07;;;;;;;-4.90;100.00;103384.00;7327868;19;20202;-42
2024/01/12 00:50:48;;;;;;;22.48;12.32;;;;;;;-4.74;100.00;103383.69;7350934;19;20566;-42
2024/01/12 00:53:18;;;;;;;25.17;11.23;;;;;;;-4.84;100.00;103371.34;7329463;19;20261;-44
2024/01/12 00:55:48;;;;;;;21.60;11.73;;;;;;;-4.96;100.00;103374.59;7350642;19;20194;-41
2024/01/12 00:58:18;;;;;;;22.73;11.35;;;;;;;-4.89;100.00;103367.25;7327877;19;20224;-43
2024/01/12 01:00:50;;;;;;;21.67;10.90;;;;;;;-4.88;100.00;103367.47;7350699;19;20233;-44
2024/01/12 01:03:19;;;;;;;21.90;11.75;;;;;;;-4.89;100.00;103359.69;7329116;19;20242;-41
2024/01/12 01:05:50;;;;;;;18.55;10.05;;;;;;;-4.97;100.00;103365.22;7342322;19;20194;-41
2024/01/12 01:08:20;;;;;;;26.65;11.82;;;;;;;-4.92;100.00;103361.78;7348900;19;20217;-42
2024/01/12 01:10:50;;;;;;;22.08;10.80;;;;;;;-4.77;100.00;103358.06;7339086;19;20202;-43
2024/01/12 01:13:19;;;;;;;22.33;10.85;;;;;;;-4.62;100.00;103351.78;7350608;19;20274;-41
2024/01/12 01:15:51;;;;;;;24.83;11.35;;;;;;;-4.61;100.00;103353.63;7346386;19;20201;-42
2024/01/12 01:18:21;;;;;;;21.40;11.00;;;;;;;-4.65;100.00;103339.69;7348555;19;20205;-42
2024/01/12 01:20:51;;;;;;;18.38;10.48;;;;;;;-4.85;100.00;103328.31;7328957;19;20201;-44
2024/01/12 01:23:20;;;;;;;18.60;10.60;;;;;;;-5.00;100.00;103310.28;7348593;19;20195;-46
2024/01/12 01:25:50;;;;;;;20.27;11.30;;;;;;;-5.15;100.00;103303.91;7331724;19;20190;-43
2024/01/12 01:28:20;;;;;;;22.95;11.20;;;;;;;-5.18;100.00;103293.41;7348916;19;20264;-41
2024/01/12 01:30:52;;;;;;;25.80;11.15;;;;;;;-5.18;100.00;103289.28;7337503;19;20266;-42
2024/01/12 01:33:22;;;;;;;19.33;9.75;;;;;;;-5.18;100.00;103285.88;7349694;19;20746;-42
2024/01/12 01:35:52;;;;;;;21.25;10.70;;;;;;;-5.24;100.00;103284.97;7327836;19;20198;-42
2024/01/12 01:38:22;;;;;;;18.80;9.35;;;;;;;-5.30;100.00;103274.91;7347560;19;20206;-42
2024/01/12 01:40:51;;;;;;;22.60;9.77;;;;;;;-5.37;100.00;103270.59;7327719;19;20198;-41
2024/01/12 01:43:21;;;;;;;21.30;10.93;;;;;;;-5.37;100.00;103274.69;7347730;19;20194;-42
2024/01/12 01:45:54;;;;;;;26.38;11.07;;;;;;;-5.28;100.00;103281.09;7327075;19;20194;-42
2024/01/12 01:48:23;;;;;;;20.23;10.23;;;;;;;-5.27;100.00;103282.91;7348047;19;20205;-42
2024/01/12 01:50:53;;;;;;;21.95;10.77;;;;;;;-5.33;100.00;103282.91;7327881;19;20194;-42
2024/01/12 01:53:24;;;;;;;24.38;11.05;;;;;;;-5.35;100.00;103291.84;7351171;19;20291;-43
2024/01/12 01:55:53;;;;;;;29.15;9.18;;;;;;;-5.36;100.00;103297.59;7334529;19;20659;-42
2024/01/12 01:58:23;;;;;;;26.48;11.68;;;;;;;-5.38;100.00;103303.09;7354948;19;20206;-44
2024/01/12 02:00:55;;;;;;;27.80;10.45;;;;;;;-5.37;100.00;103295.75;7334100;19;20198;-42
2024/01/12 02:03:25;;;;;;;24.48;9.32;;;;;;;-5.39;100.00;103299.63;7355647;19;20273;-43
2024/01/12 02:05:59;;;;;;;19.30;10.25;;;;;;;-5.38;100.00;103309.03;7334367;19;20269;-42
2024/01/12 02:08:29;;;;;;;19.83;10.38;;;;;;;-5.33;100.00;103315.63;7349223;19;20240;-43
2024/01/12 02:10:59;;;;;;;25.45;10.50;;;;;;;-5.24;100.00;103331.19;7333819;19;20205;-44
2024/01/12 02:13:28;;;;;;;28.98;11.30;;;;;;;-5.13;100.00;103327.72;7356172;19;20269;-43
2024/01/12 02:16:01;;;;;;;29.60;10.75;;;;;;;-5.14;100.00;103335.97;7334504;19;20209;-42
2024/01/12 02:18:32;;;;;;;27.73;11.07;;;;;;;-5.19;100.00;103337.81;7353932;19;20202;-43
2024/01/12 02:21:05;;;;;;;21.80;10.90;;;;;;;-5.25;100.00;103335.97;7334536;19;20190;-43
2024/01/12 02:23:34;;;;;;;22.40;9.70;;;;;;;-5.23;100.00;103339.66;7356860;19;20215;-42
2024/01/12 02:26:04;;;;;;;17.90;9.80;;;;;;;-5.18;100.00;103344.66;7331577;19;20190;-43
2024/01/12 02:28:34;;;;;;;46.65;15.85;;;;;;;-5.02;100.00;103342.78;7354579;19;20277;-42
2024/01/12 02:31:04;;;;;;;20.08;10.60;;;;;;;-5.20;100.00;103340.09;7334101;19;20253;-42
2024/01/12 02:33:34;;;;;;;24.42;9.20;;;;;;;-5.26;100.00;103339.19;7356010;19;20217;-41
2024/01/12 02:36:07;;;;;;;26.05;9.90;;;;;;;-5.26;100.00;103339.19;7334925;19;20190;-42
2024/01/12 02:38:37;;;;;;;26.35;10.40;;;;;;;-5.28;100.00;103342.41;7351913;19;20359;-43
2024/01/12 02:41:08;;;;;;;27.95;10.20;;;;;;;-5.20;100.00;103356.13;7332850;19;20215;-42
2024/01/12 02:43:38;;;;;;;22.90;10.38;;;;;;;-5.28;100.00;103344.94;7353129;19;20655;-43
2024/01/12 02:46:08;;;;;;;20.27;9.88;;;;;;;-5.36;100.00;103345.41;7333159;19;20202;-42
2024/01/12 02:48:37;;;;;;;20.38;9.77;;;;;;;-5.33;100.00;103353.41;7352849;19;20210;-42
2024/01/12 02:51:10;;;;;;;22.45;9.63;;;;;;;-5.23;100.00;103354.75;7333179;19;20194;-44
2024/01/12 02:53:39;;;;;;;17.17;9.48;;;;;;;-5.23;100.00;103362.31;7355808;19;20675;-42
2024/01/12 02:56:09;;;;;;;25.08;11.38;;;;;;;-5.19;100.00;103355.44;7333503;19;20561;-43
2024/01/12 02:58:39;;;;;;;30.58;10.57;;;;;;;-5.22;100.00;103351.56;7353684;19;20219;-43
2024/01/12 03:01:09;;;;;;;31.17;8.93;;;;;;;-5.30;100.00;103347.91;7333382;19;20221;-42
2024/01/12 03:03:38;;;;;;;23.95;9.48;;;;;;;-5.28;100.00;103347.44;7353089;19;20258;-45
2024/01/12 03:06:11;;;;;;;40.00;10.82;;;;;;;-5.13;100.00;103352.00;7331913;19;20205;-42
2024/01/12 03:08:40;;;;;;;25.17;9.80;;;;;;;-5.21;100.00;103344.25;7352028;19;20210;-42
2024/01/12 03:11:11;;;;;;;25.58;9.43;;;;;;;-5.25;100.00;103341.03;7332244;19;20193;-43
2024/01/12 03:13:40;;;;;;;20.63;8.90;;;;;;;-5.29;100.00;103343.09;7354142;19;20221;-43
2024/01/12 03:16:20;;;;;;;19.42;8.07;;;;;;;-5.31;100.00;103348.59;7331691;19;20631;-42
2024/01/12 03:18:50;;;;;;;22.35;9.68;;;;;;;-5.23;100.00;103347.22;7343437;19;20814;-41
2024/01/12 03:21:23;;;;;;;18.83;9.10;;;;;;;-5.23;100.00;103354.75;7353503;19;20211;-41
2024/01/12 03:23:52;;;;;;;20.48;9.60;;;;;;;-5.19;100.00;103350.41;7330248;19;20194;-42
2024/01/12 03:26:22;;;;;;;20.88;9.00;;;;;;;-5.20;100.00;103340.09;7352447;19;20198;-41
2024/01/12 03:28:51;;;;;;;22.20;8.00;;;;;;;-5.22;100.00;103331.41;7329105;19;20417;-44
2024/01/12 03:31:22;;;;;;;20.58;9.07;;;;;;;-5.18;100.00;103333.69;7347410;19;20669;-40
2024/01/12 03:33:51;;;;;;;46.05;11.85;;;;;;;-5.11;100.00;103328.88;7331434;19;20198;-40
2024/01/12 03:36:25;;;;;;;20.63;9.77;;;;;;;-5.10;100.00;103338.25;7352527;19;20201;-43
2024/01/12 03:38:54;;;;;;;21.52;8.43;;;;;;;-5.18;100.00;103326.16;7330034;19;20279;-41
2024/01/12 03:41:24;;;;;;;20.27;8.43;;;;;;;-5.21;100.00;103328.19;7352321;19;20198;-41
2024/01/12 03:43:54;;;;;;;23.77;9.88;;;;;;;-5.19;100.00;103326.81;7328838;19;20216;-41
2024/01/12 03:46:25;;;;;;;20.85;8.95;;;;;;;-5.13;100.00;103324.28;7352619;19;20194;-41
2024/01/12 03:48:56;;;;;;;19.73;8.90;;;;;;;-5.08;100.00;103331.81;7328674;19;20265;-42
2024/01/12 03:51:28;;;;;;;16.10;7.70;;;;;;;-5.11;100.00;103327.94;7351710;19;20201;-42
2024/01/12 03:53:58;;;;;;;18.35;7.93;;;;;;;-5.17;100.00;103325.44;7330240;19;20567;-41
2024/01/12 03:56:27;;;;;;;23.10;8.52;;;;;;;-5.15;100.00;103316.50;7351280;19;20202;-41
2024/01/12 03:58:57;;;;;;;15.27;7.63;;;;;;;-5.20;100.00;103304.84;7328829;19;20198;-42
2024/01/12 04:01:27;;;;;;;15.45;4.80;;;;;;;-5.28;100.00;103303.75;7351494;19;20195;-43
2024/01/12 04:03:56;;;;;;;15.18;7.20;;;;;;;-5.34;100.00;103301.22;7328764;19;20194;-40
2024/01/12 04:06:28;;;;;;;14.93;6.88;;;;;;;-5.34;100.00;103283.59;7351038;19;20278;-42
2024/01/12 04:08:58;;;;;;;12.88;6.72;;;;;;;-5.38;100.00;103283.88;7327251;19;20677;-43
2024/01/12 04:11:28;;;;;;;31.25;11.35;;;;;;;-5.23;100.00;103281.75;7347234;19;20201;-44
2024/01/12 04:13:57;;;;;;;28.55;9.52;;;;;;;-5.17;100.00;103285.16;7326389;19;20621;-41
2024/01/12 04:16:27;;;;;;;24.73;7.82;;;;;;;-5.20;100.00;103274.63;7346428;19;20234;-47
2024/01/12 04:18:57;;;;;;;17.25;7.68;;;;;;;-5.29;100.00;103284.28;7326747;19;20198;-46
2024/01/12 04:21:30;;;;;;;15.15;7.40;;;;;;;-5.23;100.00;103276.72;7349135;19;20209;-39
2024/01/12 04:24:00;;;;;;;19.45;9.23;;;;;;;-5.17;100.00;103270.97;7327446;19;20700;-45
2024/01/12 04:26:30;;;;;;;24.13;9.35;;;;;;;-5.21;100.00;103272.81;7348410;19;20201;-47
2024/01/12 04:29:00;;;;;;;15.77;8.35;;;;;;;-5.18;100.00;103265.72;7326218;19;20274;-40
2024/01/12 04:31:29;;;;;;;32.75;8.15;;;;;;;-5.18;100.00;103255.66;7348565;19;20710;-43
2024/01/12 04:33:59;;;;;;;19.38;7.20;;;;;;;-5.17;100.00;103248.28;7326847;19;20683;-43
2024/01/12 04:36:32;;;;;;;21.25;8.65;;;;;;;-5.11;100.00;103240.75;7348257;19;20222;-43
2024/01/12 04:39:01;;;;;;;32.72;9.77;;;;;;;-5.05;100.00;103240.69;7326138;19;20202;-46
2024/01/12 04:41:31;;;;;;;22.65;9.32;;;;;;;-5.02;100.00;103242.06;7347891;19;20585;-40
2024/01/12 04:44:01;;;;;;;71.55;14.48;;;;;;;-4.96;100.00;103234.50;7324710;19;20587;-44
2024/01/12 04:46:31;;;;;;;52.83;12.52;;;;;;;-4.89;100.00;103228.72;7348224;19;20201;-45
2024/01/12 04:49:00;;;;;;;33.28;12.73;;;;;;;-4.90;100.00;103225.28;7326330;19;20253;-45
2024/01/12 04:51:30;;;;;;;26.10;10.25;;;;;;;-4.95;100.00;103217.75;7347205;19;20201;-43
2024/01/12 04:54:00;;;;;;;25.98;10.27;;;;;;;-4.88;100.00;103225.50;7326355;19;20269;-41
2024/01/12 04:56:29;;;;;;;26.20;9.60;;;;;;;-4.93;100.00;103219.81;7347741;19;20670;-44
2024/01/12 04:58:59;;;;;;;40.78;9.15;;;;;;;-4.91;100.00;103212.47;7325937;19;20186;-42
2024/01/12 05:01:29;;;;;;;9.57;5.10;;;;;;;-5.08;100.00;103200.88;7347456;19;20202;-47
2024/01/12 05:03:58;;;;;;;21.30;8.23;;;;;;;-5.01;100.00;103213.66;7325984;19;20190;-40
2024/01/12 05:06:28;;;;;;;18.27;8.05;;;;;;;-4.96;100.00;103200.81;7347128;19;20202;-48
2024/01/12 05:09:01;;;;;;;32.95;9.68;;;;;;;-5.04;100.00;103205.66;7325536;19;20222;-43
2024/01/12 05:11:30;;;;;;;22.15;9.40;;;;;;;-4.98;100.00;103204.72;7346470;19;20600;-46
2024/01/12 05:14:00;;;;;;;21.02;9.00;;;;;;;-4.96;100.00;103216.84;7325565;19;20209;-40
2024/01/12 05:16:29;;;;;;;25.08;10.45;;;;;;;-4.90;100.00;103216.81;7346887;19;20210;-47
2024/01/12 05:18:59;;;;;;;16.60;7.00;;;;;;;-4.99;100.00;103210.47;7325347;19;20675;-46
2024/01/12 05:21:29;;;;;;;20.88;8.60;;;;;;;-5.03;100.00;103199.03;7346244;19;20226;-44
2024/01/12 05:24:01;;;;;;;31.38;9.32;;;;;;;-5.06;100.00;103199.50;7326322;19;20546;-44
2024/01/12 05:26:31;;;;;;;19.95;8.35;;;;;;;-5.06;100.00;103202.03;7346700;19;20198;-45
2024/01/12 05:29:01;;;;;;;20.02;8.68;;;;;;;-5.06;100.00;103202.03;7331472;19;20218;-46
2024/01/12 05:31:31;;;;;;;21.35;8.55;;;;;;;-5.06;100.00;103201.09;7352429;19;20206;-42
2024/01/12 05:34:00;;;;;;;23.27;9.30;;;;;;;-5.09;100.00;103204.09;7332430;19;20227;-40
2024/01/12 05:36:30;;;;;;;22.08;6.75;;;;;;;-5.16;100.00;103201.38;7354508;19;20210;-40
2024/01/12 05:39:03;;;;;;;36.95;9.90;;;;;;;-5.16;100.00;103191.31;7331238;19;20610;-42
2024/01/12 05:41:34;;;;;;;36.40;7.43;;;;;;;-5.09;100.00;103188.09;7352219;19;20213;-41
2024/01/12 05:44:03;;;;;;;28.77;5.93;;;;;;;-5.26;100.00;103195.69;7330721;19;20566;-39
2024/01/12 05:46:33;;;;;;;32.65;7.13;;;;;;;-5.21;100.00;103199.81;7353211;19;20226;-39
2024/01/12 05:49:04;;;;;;;21.95;8.20;;;;;;;-5.15;100.00;103199.09;7331825;19;20247;-46
2024/01/12 05:51:35;;;;;;;29.85;8.93;;;;;;;-5.17;100.00;103197.06;7352098;19;20243;-41
2024/01/12 05:54:07;;;;;;;27.58;9.13;;;;;;;-5.18;100.00;103200.25;7331792;19;20190;-46
2024/01/12 05:56:37;;;;;;;13.45;5.82;;;;;;;-5.24;100.00;103206.94;7353371;19;20198;-45
2024/01/12 05:59:07;;;;;;;16.92;7.90;;;;;;;-5.23;100.00;103211.28;7331159;19;20197;-41
2024/01/12 06:01:37;;;;;;;25.83;7.80;;;;;;;-5.20;100.00;103209.19;7353383;19;20202;-44
2024/01/12 06:04:06;;;;;;;25.25;9.43;;;;;;;-5.20;100.00;103206.66;7331711;19;20211;-43
2024/01/12 06:06:36;;;;;;;31.30;10.80;;;;;;;-5.11;100.00;103205.50;7352684;19;20190;-41
2024/01/12 06:09:08;;;;;;;16.98;7.18;;;;;;;-5.08;100.00;103203.41;7330435;19;20639;-42
2024/01/12 06:11:38;;;;;;;50.10;12.70;;;;;;;-4.99;100.00;103198.78;7352234;19;20209;-43
2024/01/12 06:14:08;;;;;;;13.27;5.78;;;;;;;-5.06;100.00;103199.50;7331797;19;20257;-47
2024/01/12 06:16:37;;;;;;;18.88;7.50;;;;;;;-5.08;100.00;103205.03;7352702;19;20228;-40
2024/01/12 06:19:07;;;;;;;41.72;12.48;;;;;;;-5.08;100.00;103210.94;7330563;19;20207;-45
2024/01/12 06:21:37;;;;;;;43.35;7.90;;;;;;;-4.97;100.00;103201.50;7351410;19;20206;-46
2024/01/12 06:24:11;;;;;;;20.02;7.10;;;;;;;-5.11;100.00;103195.41;7331302;19;20190;-42
2024/01/12 06:26:44;;;;;;;16.40;6.22;;;;;;;-5.31;100.00;103213.59;7352919;19;20219;-41
2024/01/12 06:29:13;;;;;;;19.98;7.32;;;;;;;-5.29;100.00;103219.75;7330176;19;20234;-46
2024/01/12 06:31:43;;;;;;;23.88;8.23;;;;;;;-5.26;100.00;103230.94;7350736;19;20210;-47
2024/01/12 06:34:13;;;;;;;15.77;6.68;;;;;;;-5.33;100.00;103231.69;7331467;19;20219;-41
2024/01/12 06:36:45;;;;;;;20.95;8.95;;;;;;;-5.23;100.00;103224.75;7352007;19;20201;-50
2024/01/12 06:39:17;;;;;;;21.30;7.28;;;;;;;-5.22;100.00;103230.72;7329266;19;20269;-45
2024/01/12 06:41:47;;;;;;;25.67;7.47;;;;;;;-5.20;100.00;103229.31;7351888;19;20210;-45
2024/01/12 06:44:17;;;;;;;15.43;6.40;;;;;;;-5.28;100.00;103241.72;7329366;19;20736;-41
2024/01/12 06:46:47;;;;;;;21.40;6.30;;;;;;;-5.22;100.00;103245.81;7352607;19;20194;-45
2024/01/12 06:49:16;;;;;;;9.13;4.65;;;;;;;-5.29;100.00;103239.88;7330161;19;20202;-42
2024/01/12 06:51:46;;;;;;;20.67;7.72;;;;;;;-5.20;100.00;103239.38;7350891;19;20202;-43
2024/01/12 06:54:18;;;;;;;18.30;8.07;;;;;;;-5.23;100.00;103233.94;7330457;19;20198;-45
2024/01/12 06:56:51;;;;;;;19.70;7.70;;;;;;;-5.10;100.00;103240.03;7351726;19;20228;-41
2024/01/12 06:59:20;;;;;;;19.40;8.07;;;;;;;-5.13;100.00;103238.69;7329944;19;20198;-41
2024/01/12 07:01:47;;;;;;;23.60;8.77;;;;;;;-5.07;100.00;103240.47;7339332;19;20206;-41
2024/01/12 07:04:17;;;;;;;11.70;5.57;;;;;;;-5.09;100.00;103229.28;7350817;19;20715;-45
2024/01/12 07:06:47;;;;;;;6.60;3.95;;;;;;;-5.17;100.00;103223.13;7351735;19;20204;-46
2024/01/12 07:09:19;;;;;;;8.02;3.13;;;;;;;-5.17;100.00;103214.69;7329076;19;20198;-47
2024/01/12 07:11:49;;;;;;;18.52;7.15;;;;;;;-5.14;100.00;103189.91;7350070;19;20217;-42
2024/01/12 07:14:18;;;;;;;18.92;7.65;;;;;;;-5.09;100.00;103178.00;7329892;19;20219;-41
2024/01/12 07:16:48;;;;;;;32.50;7.22;;;;;;;-4.96;100.00;103175.63;7351368;19;20211;-44
2024/01/12 07:19:18;;;;;;;21.20;8.85;;;;;;;-4.93;100.00;103171.06;7329026;19;20198;-41
2024/01/12 07:21:48;;;;;;;22.23;7.43;;;;;;;-4.85;100.00;103157.94;7350833;19;20214;-46
2024/01/12 07:24:20;;;;;;;21.50;8.35;;;;;;;-4.84;100.00;103152.19;7330136;19;20194;-43
2024/01/12 07:26:49;;;;;;;18.70;6.35;;;;;;;-4.81;100.00;103152.66;7346567;19;20268;-38
2024/01/12 07:29:22;;;;;;;23.00;8.05;;;;;;;-4.77;100.00;103152.38;7346546;19;20199;-45
2024/01/12 07:31:52;;;;;;;20.88;6.40;;;;;;;-4.70;100.00;103145.69;7324970;19;20204;-45
2024/01/12 07:34:21;;;;;;;29.73;11.63;;;;;;;-4.64;100.00;103144.94;7350638;19;20637;-40
2024/01/12 07:36:51;;;;;;;26.45;9.10;;;;;;;-4.59;100.00;103133.00;7328449;19;20585;-40
2024/01/12 07:39:23;;;;;;;19.77;7.63;;;;;;;-4.55;100.00;103124.25;7351130;19;20261;-43
2024/01/12 07:41:57;;;;;;;19.45;8.35;;;;;;;-4.55;100.00;103120.13;7327209;19;20198;-41
2024/01/12 07:44:26;;;;;;;18.67;7.28;;;;;;;-4.47;100.00;103116.16;7349440;19;20215;-43
2024/01/12 07:46:56;;;;;;;21.30;7.53;;;;;;;-4.35;100.00;103106.88;7327509;19;20190;-42
2024/01/12 07:49:26;;;;;;;21.50;6.85;;;;;;;-4.38;100.00;103094.75;7347281;19;20249;-45
2024/01/12 07:51:56;;;;;;;13.38;5.32;;;;;;;-4.21;100.00;103087.03;7325686;19;20209;-48
2024/01/12 07:54:28;;;;;;;29.27;11.48;;;;;;;-4.17;100.00;103047.13;7350125;19;20269;-41
2024/01/12 07:56:58;;;;;;;27.65;7.85;;;;;;;-4.12;100.00;103049.56;7328015;19;20190;-42
2024/01/12 07:59:28;;;;;;;9.40;4.35;;;;;;;-4.13;100.00;103049.34;7347284;19;20207;-40
2024/01/12 08:01:58;;;;;;;611.17;220.13;;;;;;;-4.07;100.00;103030.00;7327095;19;20706;-44
2024/01/12 08:04:28;;;;;;;17.23;4.95;;;;;;;-4.04;100.00;103024.47;7349080;19;20202;-42
2024/01/12 08:06:57;;;;;;;9.45;3.88;;;;;;;-3.96;100.00;103012.22;7327733;19;20671;-52
2024/01/12 08:09:30;;;;;;;21.25;7.25;;;;;;;-3.91;100.00;103017.88;7348190;19;20251;-41
2024/01/12 08:11:59;;;;;;;11.43;3.58;;;;;;;-3.87;100.00;102984.81;7326531;19;20193;-43
2024/01/12 08:14:29;;;;;;;39.25;11.45;;;;;;;-3.69;100.00;102977.91;7348001;19;20715;-41
2024/01/12 08:16:59;;;;;;;17.83;4.80;;;;;;;-3.69;100.00;102990.53;7327971;19;20198;-40
2024/01/12 08:19:28;;;;;;;21.40;7.13;;;;;;;-3.64;100.00;102988.63;7347898;19;20202;-45
2024/01/12 08:21:58;;;;;;;21.00;7.70;;;;;;;-3.57;100.00;102974.50;7326445;19;20765;-45
2024/01/12 08:24:34;;;;;;;10.15;4.45;;;;;;;-3.58;100.00;102971.78;7348117;19;20229;-46
2024/01/12 08:27:04;;;;;;;20.85;7.03;;;;;;;-3.59;100.00;102968.31;7327234;19;20205;-43
2024/01/12 08:29:34;;;;;;;28.58;8.85;;;;;;;-3.51;100.00;102966.84;7348174;19;20294;-42
2024/01/12 08:32:04;;;;;;;24.00;7.72;;;;;;;-3.45;100.00;102947.47;7326328;19;20800;-42
2024/01/12 08:34:33;;;;;;;16.67;6.35;;;;;;;-3.45;100.00;102944.94;7347893;19;20697;-40
2024/01/12 08:37:03;;;;;;;46.97;12.85;;;;;;;-3.36;100.00;102926.66;7324261;19;20206;-39
2024/01/12 08:39:36;;;;;;;13.95;6.75;;;;;;;-3.36;100.00;102917.50;7348492;19;20190;-41
2024/01/12 08:42:07;;;;;;;27.15;8.48;;;;;;;-3.28;100.00;102908.41;7325966;19;20775;-43
2024/01/12 08:44:36;;;;;;;5.85;2.22;;;;;;;-3.31;100.00;102905.47;7347446;19;20275;-44
2024/01/12 08:47:07;;;;;;;22.75;6.57;;;;;;;-3.21;100.00;102905.97;7326862;19;20197;-43
2024/01/12 08:49:36;;;;;;;24.15;8.75;;;;;;;-3.16;100.00;102886.38;7348208;19;20214;-42
2024/01/12 08:52:07;;;;;;;26.73;7.93;;;;;;;-3.10;100.00;102891.31;7326242;19;20556;-43
2024/01/12 08:54:39;;;;;;;23.20;7.38;;;;;;;-3.09;100.00;102883.94;7347974;19;20634;-41
2024/01/12 08:57:09;;;;;;;19.67;6.35;;;;;;;-2.97;100.00;102884.66;7322758;19;20191;-43
2024/01/12 08:59:39;;;;;;;25.13;6.70;;;;;;;-2.95;100.00;102862.09;7346860;19;20225;-44
2024/01/12 09:02:09;;;;;;;17.50;5.70;;;;;;;-2.90;100.00;102861.06;7324474;19;20201;-41
2024/01/12 09:04:38;;;;;;;33.33;7.95;;;;;;;-2.86;100.00;102853.19;7347560;19;20253;-40
2024/01/12 09:07:08;;;;;;;28.92;7.55;;;;;;;-2.84;100.00;102866.94;7325121;19;20202;-42
2024/01/12 09:09:40;;;;;;;21.63;6.40;;;;;;;-2.74;100.00;102861.44;7346702;19;20671;-40
2024/01/12 09:12:10;;;;;;;21.10;6.38;;;;;;;-2.70;100.00;102845.97;7325179;19;21440;-44
2024/01/12 09:14:40;;;;;;;29.35;8.80;;;;;;;-2.64;100.00;102845.84;7346396;19;20201;-43
2024/01/12 09:17:10;;;;;;;24.20;7.43;;;;;;;-2.65;100.00;102847.47;7326048;19;20563;-44
2024/01/12 09:19:40;;;;;;;21.27;8.32;;;;;;;-2.59;100.00;102844.81;7346466;19;20754;-40
2024/01/12 09:22:09;;;;;;;33.92;8.88;;;;;;;-2.52;100.00;102836.41;7325392;19;20203;-44
2024/01/12 09:24:41;;;;;;;24.77;7.40;;;;;;;-2.47;100.00;102835.34;7345580;19;21059;-46
2024/01/12 09:27:11;;;;;;;25.35;6.93;;;;;;;-2.48;100.00;102842.06;7324991;19;20198;-44
2024/01/12 09:29:41;;;;;;;20.90;7.07;;;;;;;-2.40;100.00;102850.63;7345273;19;20214;-40
2024/01/12 09:32:10;;;;;;;28.15;6.50;;;;;;;-2.35;100.00;102849.56;7324404;19;20199;-40
2024/01/12 09:34:41;;;;;;;26.58;8.25;;;;;;;-2.35;100.00;102861.31;7342845;19;20197;-41
2024/01/12 09:37:10;;;;;;;29.27;9.10;;;;;;;-2.26;100.00;102867.53;7324006;19;20187;-40
2024/01/12 09:39:43;;;;;;;26.50;8.35;;;;;;;-2.15;100.00;102868.94;7347160;19;20578;-40
2024/01/12 09:42:15;;;;;;;32.78;8.70;;;;;;;-2.00;100.00;102866.50;7324919;19;20210;-42
2024/01/12 09:44:47;;;;;;;25.23;7.10;;;;;;;-1.99;100.00;102875.91;7344665;19;20198;-42
2024/01/12 09:47:28;;;;;;;25.33;7.80;;;;;;;-2.01;100.00;102864.69;7323676;19;20194;-45
2024/01/12 09:49:57;;;;;;;37.78;10.13;;;;;;;-1.94;100.00;102863.13;7324225;19;20198;-44
2024/01/12 09:52:27;;;;;;;26.42;7.45;;;;;;;-1.93;100.00;102853.91;7345692;19;20679;-43
2024/01/12 09:54:59;;;;;;;36.90;8.82;;;;;;;-1.87;100.00;102859.75;7322969;19;20204;-47
2024/01/12 09:57:29;;;;;;;33.90;8.43;;;;;;;-1.79;100.00;102854.00;7345701;19;20266;-39
2024/01/12 10:00:02;;;;;;;28.63;8.35;;;;;;;-1.69;100.00;102865.31;7324143;19;20191;-43
2024/01/12 10:02:32;;;;;;;24.73;8.65;;;;;;;-1.65;100.00;102868.41;7345384;19;20918;-43
2024/01/12 10:05:02;;;;;;;20.52;7.68;;;;;;;-1.60;100.00;102861.38;7324236;19;20201;-40
2024/01/12 10:07:31;;;;;;;32.88;8.50;;;;;;;-1.64;100.00;102867.69;7346189;19;20219;-41
2024/01/12 10:10:04;;;;;;;22.58;7.22;;;;;;;-1.61;100.00;102867.16;7324011;19;20194;-40
2024/01/12 10:12:33;;;;;;;35.38;10.05;;;;;;;-1.57;100.00;102856.72;7344742;19;20584;-40
2024/01/12 10:15:03;;;;;;;35.58;9.25;;;;;;;-1.52;100.00;102860.72;7327043;19;20285;-40
2024/01/12 10:17:34;;;;;;;43.45;12.73;;;;;;;-1.48;100.00;102856.03;7351977;19;20194;-40
2024/01/12 10:20:05;;;;;;;32.15;9.70;;;;;;;-1.43;100.00;102852.44;7330778;19;20269;-40
2024/01/12 10:22:35;;;;;;;31.35;7.43;;;;;;;-1.45;100.00;102843.75;7351899;19;20285;-42
2024/01/12 10:25:08;;;;;;;30.27;10.13;;;;;;;-1.43;100.00;102833.06;7330510;19;20229;-39
2024/01/12 10:27:37;;;;;;;46.33;10.65;;;;;;;-1.39;100.00;102844.53;7352020;19;20261;-46
2024/01/12 10:30:11;;;;;;;32.30;8.88;;;;;;;-1.42;100.00;102837.44;7329965;19;20265;-43
2024/01/12 10:32:41;;;;;;;29.77;9.80;;;;;;;-1.36;100.00;102837.28;7353155;19;20237;-40
2024/01/12 10:35:11;;;;;;;30.70;10.00;;;;;;;-1.33;100.00;102832.63;7330421;19;20191;-40
2024/01/12 10:37:42;;;;;;;38.78;10.65;;;;;;;-1.30;100.00;102825.38;7351646;19;20269;-40
2024/01/12 10:40:16;;;;;;;20.15;7.18;;;;;;;-1.28;100.00;102829.00;7330160;19;20309;-42
2024/01/12 10:42:50;;;;;;;19.15;7.13;;;;;;;-1.33;100.00;102832.63;7351116;19;20609;-41
2024/01/12 10:45:22;;;;;;;40.78;8.65;;;;;;;-1.31;100.00;102831.16;7330800;19;20224;-39
2024/01/12 10:48:02;;;;;;;29.15;9.40;;;;;;;-1.24;100.00;102832.81;7330056;19;20194;-48
2024/01/12 10:50:36;;;;;;;32.13;10.07;;;;;;;-1.15;100.00;102833.97;7351529;19;20197;-44
2024/01/12 10:53:09;;;;;;;26.95;9.88;;;;;;;-1.14;100.00;102837.38;7330633;19;20295;-40
2024/01/12 10:55:46;;;;;;;33.22;8.40;;;;;;;-1.15;100.00;102843.16;7351360;19;20664;-42
2024/01/12 10:58:16;;;;;;;34.80;10.55;;;;;;;-1.11;100.00;102841.22;7329502;19;20823;-45
2024/01/12 11:00:46;;;;;;;29.25;8.20;;;;;;;-1.12;100.00;102833.44;7350393;19;20210;-41
2024/01/12 11:03:16;;;;;;;34.38;9.88;;;;;;;-1.11;100.00;102835.22;7330464;19;20197;-42
2024/01/12 11:05:46;;;;;;;24.23;5.78;;;;;;;-1.13;100.00;102836.69;7351355;19;20865;-41
2024/01/12 11:08:17;;;;;;;22.65;8.75;;;;;;;-1.01;100.00;102833.13;7329339;19;20273;-41
2024/01/12 11:10:52;;;;;;;20.13;7.53;;;;;;;-1.07;100.00;102836.50;7350157;19;20215;-41
2024/01/12 11:13:23;;;;;;;23.17;8.93;;;;;;;-1.02;100.00;102840.53;7331074;19;20265;-42
2024/01/12 11:15:54;;;;;;;13.20;6.70;;;;;;;-1.05;100.00;102838.53;7328462;19;20198;-41
2024/01/12 11:18:25;;;;;;;30.13;9.15;;;;;;;-1.03;100.00;102834.53;7350205;19;20261;-40
2024/01/12 11:21:02;;;;;;;25.20;7.75;;;;;;;-1.01;100.00;102828.06;7329751;19;20209;-42